createdAt,value
2022-10-17T00:02:02.534Z,98225.16
2022-10-17T00:04:31.618Z,98222.75
2022-10-17T00:06:58.002Z,98223.78
2022-10-17T00:09:24.244Z,98224.00
2022-10-17T00:11:50.485Z,98222.41
2022-10-17T00:14:16.724Z,98220.75
2022-10-17T00:16:42.999Z,98226.38
2022-10-17T00:19:09.323Z,98228.25
2022-10-17T00:21:35.521Z,98226.63
2022-10-17T00:24:03.382Z,98229.56
2022-10-17T00:26:29.595Z,98226.06
2022-10-17T00:28:56.474Z,98232.50
2022-10-17T00:31:22.712Z,98229.25
2022-10-17T00:33:48.951Z,98225.78
2022-10-17T00:36:15.162Z,98230.34
2022-10-17T00:38:41.406Z,98232.47
2022-10-17T00:41:07.636Z,98232.47
2022-10-17T00:43:33.852Z,98238.84
2022-10-17T00:46:00.046Z,98239.13
2022-10-17T00:48:26.288Z,98245.78
2022-10-17T00:50:52.515Z,98257.56
2022-10-17T00:53:19.414Z,98252.19
2022-10-17T00:55:45.700Z,98250.59
2022-10-17T00:58:12.330Z,98255.13
2022-10-17T01:00:38.530Z,98255.94
2022-10-17T01:03:04.849Z,98262.91
2022-10-17T01:05:31.379Z,98260.22
2022-10-17T01:07:57.607Z,98255.94
2022-10-17T01:10:23.995Z,98262.09
2022-10-17T01:12:50.243Z,98261.31
2022-10-17T01:15:16.513Z,98258.88
2022-10-17T01:17:42.913Z,98250.03
2022-10-17T01:20:09.232Z,98258.06
2022-10-17T01:22:36.308Z,98257.50
2022-10-17T01:25:02.553Z,98257.50
2022-10-17T01:27:29.496Z,98258.56
2022-10-17T01:29:55.736Z,98257.75
2022-10-17T01:32:22.457Z,98258.56
2022-10-17T01:34:48.681Z,98260.44
2022-10-17T01:37:15.050Z,98260.44
2022-10-17T01:39:43.933Z,98261.47
2022-10-17T01:42:11.787Z,98256.13
2022-10-17T01:44:38.003Z,98261.47
2022-10-17T01:47:04.175Z,98257.44
2022-10-17T01:49:30.368Z,98258.25
2022-10-17T01:51:56.615Z,98245.09
2022-10-17T01:54:22.947Z,98242.66
2022-10-17T01:56:49.436Z,98250.97
2022-10-17T01:59:15.616Z,98245.59
2022-10-17T02:01:41.872Z,98247.72
2022-10-17T02:04:08.948Z,98251.47
2022-10-17T02:06:35.234Z,98243.44
2022-10-17T02:09:01.945Z,98238.31
2022-10-17T02:11:28.441Z,98240.19
2022-10-17T02:13:54.605Z,98233.47
2022-10-17T02:16:20.904Z,98237.19
2022-10-17T02:18:47.168Z,98241.50
2022-10-17T02:21:13.581Z,98229.16
2022-10-17T02:23:39.698Z,98240.13
2022-10-17T02:26:05.913Z,98207.00
2022-10-17T02:28:32.154Z,98231.53
2022-10-17T02:30:58.404Z,98230.72
2022-10-17T02:33:24.609Z,98222.94
2022-10-17T02:35:50.802Z,98232.03
2022-10-17T02:38:17.259Z,98224.25
2022-10-17T02:40:43.454Z,98222.88
2022-10-17T02:43:09.639Z,98228.47
2022-10-17T02:45:36.205Z,98226.63
2022-10-17T02:48:02.448Z,98240.25
2022-10-17T02:52:54.789Z,98240.47
2022-10-17T02:55:21.009Z,98247.72
2022-10-17T02:57:47.522Z,98243.41
2022-10-17T03:00:13.874Z,98247.16
2022-10-17T03:02:40.453Z,98241.00
2022-10-17T03:05:06.765Z,98215.63
2022-10-17T03:07:32.961Z,98237.75
2022-10-17T03:09:59.194Z,98237.75
2022-10-17T03:12:25.459Z,98236.13
2022-10-17T03:14:51.715Z,98237.19
2022-10-17T03:17:17.917Z,98238.25
2022-10-17T03:19:44.160Z,98236.66
2022-10-17T03:22:10.427Z,98239.31
2022-10-17T03:24:36.711Z,98242.00
2022-10-17T03:27:02.988Z,98240.34
2022-10-17T03:29:29.244Z,98244.09
2022-10-17T03:31:55.665Z,98252.13
2022-10-17T03:34:21.923Z,98245.97
2022-10-17T03:36:48.060Z,98242.72
2022-10-17T03:39:14.292Z,98257.75
2022-10-17T03:41:40.535Z,98250.75
2022-10-17T03:44:06.804Z,98251.00
2022-10-17T03:46:33.186Z,98253.69
2022-10-17T03:48:59.406Z,98253.69
2022-10-17T03:51:25.646Z,98251.00
2022-10-17T03:53:51.907Z,98254.50
2022-10-17T03:56:18.117Z,98252.06
2022-10-17T03:58:44.239Z,98255.53
2022-10-17T04:01:10.512Z,98254.75
2022-10-17T04:03:36.807Z,98259.03
2022-10-17T04:06:02.986Z,98257.16
2022-10-17T04:08:29.203Z,98255.28
2022-10-17T04:10:56.602Z,98255.28
2022-10-17T04:13:22.742Z,98241.91
2022-10-17T04:15:48.871Z,98248.06
2022-10-17T04:18:15.016Z,98245.41
2022-10-17T04:20:41.145Z,98249.94
2022-10-17T04:23:07.403Z,98249.94
2022-10-17T04:25:36.076Z,98255.53
2022-10-17T04:28:02.967Z,98256.34
2022-10-17T04:30:29.120Z,98244.03
2022-10-17T04:32:55.283Z,98252.06
2022-10-17T04:35:21.441Z,98250.44
2022-10-17T04:37:47.727Z,98269.16
2022-10-17T04:40:13.877Z,98274.53
2022-10-17T04:42:40.037Z,98280.94
2022-10-17T04:45:06.203Z,98268.38
2022-10-17T04:47:33.463Z,98280.94
2022-10-17T04:49:59.628Z,98278.25
2022-10-17T04:52:25.813Z,98278.50
2022-10-17T04:54:51.971Z,98284.66
2022-10-17T04:57:18.292Z,98293.75
2022-10-17T04:59:44.429Z,98278.75
2022-10-17T05:02:10.576Z,98295.84
2022-10-17T05:04:36.760Z,98293.19
2022-10-17T05:07:02.906Z,98288.66
2022-10-17T05:09:29.041Z,98288.41
2022-10-17T05:11:55.337Z,98283.13
2022-10-17T05:14:21.534Z,98288.53
2022-10-17T05:16:47.773Z,98285.69
2022-10-17T05:19:13.910Z,98283.63
2022-10-17T05:21:40.066Z,98287.19
2022-10-17T05:24:06.263Z,98281.91
2022-10-17T05:26:32.408Z,98287.31
2022-10-17T05:28:58.561Z,98295.66
2022-10-17T05:31:24.859Z,98295.97
2022-10-17T05:33:51.029Z,98298.19
2022-10-17T05:36:17.333Z,98297.91
2022-10-17T05:38:43.471Z,98310.81
2022-10-17T05:41:09.613Z,98314.88
2022-10-17T05:43:35.744Z,98311.94
2022-10-17T05:46:01.883Z,98326.47
2022-10-17T05:48:28.001Z,98325.13
2022-10-17T05:50:54.277Z,98324.88
2022-10-17T05:53:20.495Z,98331.00
2022-10-17T05:55:47.087Z,98319.34
2022-10-17T05:58:21.775Z,98316.88
2022-10-17T06:00:48.682Z,98319.53
2022-10-17T06:03:15.077Z,98320.66
2022-10-17T06:05:41.353Z,98318.03
2022-10-17T06:08:07.518Z,98319.16
2022-10-17T06:10:33.679Z,98336.09
2022-10-17T06:12:59.819Z,98331.06
2022-10-17T06:15:25.964Z,98335.91
2022-10-17T06:17:52.109Z,98342.41
2022-10-17T06:20:18.308Z,98337.38
2022-10-17T06:22:44.502Z,98334.19
2022-10-17T06:25:10.654Z,98347.91
2022-10-17T06:27:36.864Z,98339.34
2022-10-17T06:30:03.045Z,98346.94
2022-10-17T06:32:29.420Z,98343.72
2022-10-17T06:35:14.386Z,98357.19
2022-10-17T06:38:00.856Z,98365.84
2022-10-17T06:40:47.310Z,98381.56
2022-10-17T06:43:33.778Z,98386.00
2022-10-17T06:46:20.291Z,98388.75
2022-10-17T06:48:46.453Z,98381.19
2022-10-17T06:51:12.599Z,98388.75
2022-10-17T06:53:39.033Z,98398.47
2022-10-17T06:56:05.273Z,98391.53
2022-10-17T06:58:31.834Z,98393.97
2022-10-17T07:01:00.923Z,98396.47
2022-10-17T07:03:27.502Z,98404.63
2022-10-17T07:05:53.728Z,98416.06
2022-10-17T07:08:20.004Z,98417.50
2022-10-17T07:10:46.307Z,98425.97
2022-10-17T07:13:12.887Z,98421.69
2022-10-17T07:15:39.190Z,98433.03
2022-10-17T07:18:05.521Z,98439.91
2022-10-17T07:20:31.753Z,98433.06
2022-10-17T07:22:58.121Z,98450.41
2022-10-17T07:25:24.341Z,98469.91
2022-10-17T07:27:50.634Z,98469.97
2022-10-17T07:30:17.005Z,98484.56
2022-10-17T07:32:43.402Z,98486.00
2022-10-17T07:35:09.745Z,98483.38
2022-10-17T07:37:36.003Z,98486.94
2022-10-17T07:40:02.579Z,98488.06
2022-10-17T07:42:29.161Z,98490.78
2022-10-17T07:44:55.547Z,98484.09
2022-10-17T07:47:22.549Z,98484.34
2022-10-17T07:49:49.901Z,98480.91
2022-10-17T07:52:17.642Z,98478.19
2022-10-17T07:54:44.163Z,98489.25
2022-10-17T07:57:10.453Z,98480.66
2022-10-17T07:59:38.123Z,98477.16
2022-10-17T08:02:04.508Z,98477.16
2022-10-17T08:04:30.926Z,98470.97
2022-10-17T08:07:11.331Z,98458.56
2022-10-17T08:09:43.953Z,98461.53
2022-10-17T08:12:10.305Z,98467.19
2022-10-17T08:14:37.134Z,98465.06
2022-10-17T08:17:03.614Z,98469.69
2022-10-17T08:19:32.505Z,98464.56
2022-10-17T08:21:58.893Z,98471.84
2022-10-17T08:24:25.319Z,98481.56
2022-10-17T08:26:52.083Z,98503.94
2022-10-17T08:29:22.758Z,98509.34
2022-10-17T08:31:51.096Z,98504.25
2022-10-17T08:34:20.488Z,98503.97
2022-10-17T08:36:46.878Z,98510.69
2022-10-17T08:39:15.433Z,98495.06
2022-10-17T08:41:41.760Z,98489.69
2022-10-17T08:44:08.020Z,98500.19
2022-10-17T08:46:34.314Z,98505.03
2022-10-17T08:49:00.813Z,98484.28
2022-10-17T08:51:30.252Z,98461.34
2022-10-17T08:53:56.531Z,98451.66
2022-10-17T08:56:48.942Z,98443.03
2022-10-17T08:59:13.710Z,98428.19
2022-10-17T09:01:41.495Z,98424.69
2022-10-17T09:04:08.393Z,98422.00
2022-10-17T09:06:35.350Z,98424.19
2022-10-17T09:09:04.277Z,98422.25
2022-10-17T09:11:32.564Z,98426.31
2022-10-17T09:13:58.966Z,98427.94
2022-10-17T09:16:25.306Z,98423.09
2022-10-17T09:18:51.551Z,98419.84
2022-10-17T09:21:17.984Z,98423.09
2022-10-17T09:23:44.294Z,98425.00
2022-10-17T09:26:10.512Z,98412.84
2022-10-17T09:28:38.870Z,98414.22
2022-10-17T09:31:07.308Z,98415.56
2022-10-17T09:33:42.591Z,98413.41
2022-10-17T09:36:19.619Z,98416.09
2022-10-17T09:38:51.479Z,98412.59
2022-10-17T09:41:43.054Z,98417.97
2022-10-17T09:44:05.193Z,98416.38
2022-10-17T09:46:40.787Z,98419.06
2022-10-17T09:49:10.250Z,98428.22
2022-10-17T09:51:38.758Z,98421.75
2022-10-17T09:54:05.025Z,98425.25
2022-10-17T09:56:31.266Z,98420.41
2022-10-17T09:58:57.582Z,98430.09
2022-10-17T10:01:24.494Z,98437.91
2022-10-17T10:03:51.027Z,98434.16
2022-10-17T10:06:17.586Z,98439.53
2022-10-17T10:08:43.858Z,98449.22
2022-10-17T10:11:13.802Z,98458.13
2022-10-17T10:13:41.298Z,98447.91
2022-10-17T10:16:12.079Z,98451.09
2022-10-17T10:18:39.110Z,98448.41
2022-10-17T10:21:07.489Z,98443.84
2022-10-17T10:24:29.618Z,98444.09
2022-10-17T10:26:29.482Z,98448.94
2022-10-17T10:28:55.780Z,98449.50
2022-10-17T10:31:22.145Z,98436.84
2022-10-17T10:33:50.903Z,98440.91
2022-10-17T10:39:04.020Z,98449.25
2022-10-17T10:41:31.915Z,98444.63
2022-10-17T10:43:58.231Z,98437.66
2022-10-17T10:46:24.506Z,98453.25
2022-10-17T10:48:50.793Z,98459.75
2022-10-17T10:51:17.625Z,98451.66
2022-10-17T10:53:43.907Z,98443.56
2022-10-17T10:56:21.555Z,98451.38
2022-10-17T10:58:48.111Z,98437.63
2022-10-17T11:01:14.420Z,98439.25
2022-10-17T11:06:07.402Z,98417.16
2022-10-17T11:08:37.848Z,98407.75
2022-10-17T11:11:04.201Z,98437.63
2022-10-17T11:13:34.771Z,98412.88
2022-10-17T11:16:01.163Z,98410.97
2022-10-17T11:18:29.850Z,98401.81
2022-10-17T11:20:57.473Z,98420.41
2022-10-17T11:23:26.987Z,98407.75
2022-10-17T11:25:53.625Z,98425.25
2022-10-17T11:28:29.156Z,98426.59
2022-10-17T11:30:55.649Z,98422.81
2022-10-17T11:33:21.996Z,98435.50
2022-10-17T11:35:48.308Z,98443.56
2022-10-17T11:38:14.543Z,98429.56
2022-10-17T11:43:55.133Z,98424.19
2022-10-17T11:46:21.536Z,98457.03
2022-10-17T11:48:47.863Z,98425.25
2022-10-17T11:54:00.888Z,98434.16
2022-10-17T11:56:27.256Z,98422.84
2022-10-17T11:58:53.551Z,98421.19
2022-10-17T12:01:19.819Z,98437.91
2022-10-17T12:03:46.082Z,98439.53
2022-10-17T12:06:12.457Z,98437.63
2022-10-17T12:08:38.866Z,98452.47
2022-10-17T12:11:05.243Z,98466.75
2022-10-17T12:13:31.539Z,98444.66
2022-10-17T12:15:58.153Z,98462.97
2022-10-17T12:18:26.945Z,98446.78
2022-10-17T12:20:55.385Z,98443.81
2022-10-17T12:23:21.778Z,98455.97
2022-10-17T12:25:51.161Z,98450.03
2022-10-17T12:28:17.512Z,98448.72
2022-10-17T12:30:43.959Z,98459.47
2022-10-17T12:33:10.326Z,98459.75
2022-10-17T12:35:36.622Z,98447.63
2022-10-17T12:38:03.905Z,98445.47
2022-10-17T12:40:30.792Z,98446.81
2022-10-17T12:43:10.875Z,98436.03
2022-10-17T12:45:43.135Z,98424.72
2022-10-17T12:48:09.497Z,98428.75
2022-10-17T12:50:38.051Z,98430.63
2022-10-17T12:53:04.500Z,98417.69
2022-10-17T12:55:30.788Z,98431.44
2022-10-17T12:57:57.614Z,98424.72
2022-10-17T13:00:23.945Z,98447.06
2022-10-17T13:02:51.218Z,98431.16
2022-10-17T13:05:17.522Z,98431.16
2022-10-17T13:07:43.890Z,98449.78
2022-10-17T13:10:14.817Z,98444.38
2022-10-17T13:12:41.975Z,98444.91
2022-10-17T13:15:08.432Z,98440.88
2022-10-17T13:17:34.789Z,98439.25
2022-10-17T13:20:02.101Z,98438.19
2022-10-17T13:22:28.763Z,98450.31
2022-10-17T13:24:55.306Z,98446.81
2022-10-17T13:27:21.894Z,98443.03
2022-10-17T13:29:48.206Z,98445.47
2022-10-17T13:32:14.527Z,98423.38
2022-10-17T13:34:40.989Z,98436.84
2022-10-17T13:37:07.248Z,98425.78
2022-10-17T13:39:52.817Z,98429.59
2022-10-17T13:42:20.782Z,98431.19
2022-10-17T13:44:46.985Z,98430.91
2022-10-17T13:47:13.871Z,98434.94
2022-10-17T13:49:40.158Z,98434.94
2022-10-17T13:52:06.697Z,98435.22
2022-10-17T13:54:32.997Z,98431.19
2022-10-17T13:57:00.668Z,98431.72
2022-10-17T13:59:40.012Z,98431.72
2022-10-17T14:02:13.837Z,98423.13
2022-10-17T14:05:11.744Z,98427.69
2022-10-17T14:07:26.845Z,98420.66
2022-10-17T14:09:54.337Z,98417.47
2022-10-17T14:12:20.593Z,98421.22
2022-10-17T14:15:09.254Z,98431.16
2022-10-17T14:17:33.663Z,98426.06
2022-10-17T14:20:16.415Z,98426.31
2022-10-17T14:25:36.587Z,98426.88
2022-10-17T14:28:02.998Z,98430.66
2022-10-17T14:33:16.046Z,98444.91
2022-10-17T14:35:42.475Z,98437.91
2022-10-17T14:38:09.240Z,98441.38
2022-10-17T14:40:35.463Z,98447.31
2022-10-17T14:43:02.080Z,98456.75
2022-10-17T14:45:28.355Z,98452.72
2022-10-17T14:47:54.716Z,98450.56
2022-10-17T14:50:21.033Z,98461.88
2022-10-17T14:52:47.442Z,98461.88
2022-10-17T14:55:13.877Z,98457.31
2022-10-17T14:57:40.334Z,98460.78
2022-10-17T15:00:06.591Z,98459.72
2022-10-17T15:02:33.263Z,98469.69
2022-10-17T15:05:00.046Z,98465.94
2022-10-17T15:07:26.446Z,98465.13
2022-10-17T15:09:52.810Z,98465.94
2022-10-17T15:12:19.111Z,98482.09
2022-10-17T15:14:45.328Z,98472.13
2022-10-17T15:17:11.653Z,98471.31
2022-10-17T15:19:38.150Z,98480.19
2022-10-17T15:22:04.588Z,98478.59
2022-10-17T15:24:30.849Z,98480.47
2022-10-17T15:26:57.237Z,98478.59
2022-10-17T15:29:23.488Z,98490.41
2022-10-17T15:31:50.176Z,98487.72
2022-10-17T15:34:16.734Z,98487.72
2022-10-17T15:36:42.949Z,98493.94
2022-10-17T15:39:09.155Z,98499.59
2022-10-17T15:41:35.749Z,98498.78
2022-10-17T15:44:03.211Z,98508.75
2022-10-17T15:46:29.476Z,98513.31
2022-10-17T15:48:55.820Z,98516.03
2022-10-17T15:51:22.082Z,98511.72
2022-10-17T15:53:48.290Z,98510.91
2022-10-17T15:56:14.552Z,98511.97
2022-10-17T15:58:40.749Z,98518.44
2022-10-17T16:01:07.350Z,98519.53
2022-10-17T16:03:33.810Z,98523.28
2022-10-17T16:06:01.032Z,98528.94
2022-10-17T16:08:27.367Z,98531.91
2022-10-17T16:10:53.639Z,98539.16
2022-10-17T16:13:19.879Z,98537.81
2022-10-17T16:15:46.245Z,98540.75
2022-10-17T16:18:14.158Z,98543.72
2022-10-17T16:20:40.540Z,98539.41
2022-10-17T16:23:07.090Z,98539.69
2022-10-17T16:25:33.415Z,98541.81
2022-10-17T16:27:59.616Z,98542.09
2022-10-17T16:30:26.253Z,98541.50
2022-10-17T16:32:52.503Z,98552.28
2022-10-17T16:35:19.100Z,98551.47
2022-10-17T16:37:45.573Z,98548.50
2022-10-17T16:40:11.828Z,98552.53
2022-10-17T16:42:38.479Z,98557.09
2022-10-17T16:45:04.676Z,98560.84
2022-10-17T16:47:31.053Z,98559.25
2022-10-17T16:49:57.322Z,98564.91
2022-10-17T16:52:23.639Z,98565.16
2022-10-17T16:54:50.858Z,98573.25
2022-10-17T16:57:17.046Z,98581.59
2022-10-17T16:59:43.271Z,98577.50
2022-10-17T17:02:09.884Z,98574.00
2022-10-17T17:04:36.194Z,98576.97
2022-10-17T17:07:02.597Z,98579.91
2022-10-17T17:09:28.890Z,98583.69
2022-10-17T17:11:55.103Z,98586.41
2022-10-17T17:14:21.508Z,98581.28
2022-10-17T17:16:47.947Z,98586.09
2022-10-17T17:19:14.421Z,98589.06
2022-10-17T17:21:40.661Z,98600.63
2022-10-17T17:24:06.936Z,98597.38
2022-10-17T17:29:04.307Z,98602.22
2022-10-17T17:31:30.564Z,98599.53
2022-10-17T17:33:57.454Z,98598.97
2022-10-17T17:36:23.714Z,98600.03
2022-10-17T17:38:49.900Z,98608.09
2022-10-17T17:41:16.198Z,98609.19
2022-10-17T17:43:42.820Z,98604.88
2022-10-17T17:46:09.143Z,98600.56
2022-10-17T17:48:35.646Z,98596.28
2022-10-17T17:51:02.432Z,98595.44
2022-10-17T17:53:28.893Z,98599.19
2022-10-17T17:55:55.191Z,98608.34
2022-10-17T17:58:21.999Z,98610.22
2022-10-17T18:00:48.390Z,98615.09
2022-10-17T18:03:14.862Z,98614.25
2022-10-17T18:05:41.259Z,98613.44
2022-10-17T18:08:07.652Z,98609.94
2022-10-17T18:10:33.836Z,98618.25
2022-10-17T18:13:00.078Z,98622.03
2022-10-17T18:15:26.547Z,98623.09
2022-10-17T18:17:53.581Z,98621.50
2022-10-17T18:20:19.790Z,98629.56
2022-10-17T18:22:46.327Z,98638.72
2022-10-17T18:25:12.561Z,98638.16
2022-10-17T18:27:38.845Z,98643.53
2022-10-17T18:30:05.034Z,98648.09
2022-10-17T18:32:31.694Z,98648.34
2022-10-17T18:34:58.512Z,98647.53
2022-10-17T18:37:25.404Z,98652.09
2022-10-17T18:39:51.763Z,98649.66
2022-10-17T18:42:18.007Z,98653.19
2022-10-17T18:44:45.004Z,98658.00
2022-10-17T18:47:11.248Z,98655.31
2022-10-17T18:49:37.508Z,98656.41
2022-10-17T18:52:03.776Z,98654.75
2022-10-17T18:54:30.820Z,98650.47
2022-10-17T18:56:57.469Z,98658.53
2022-10-17T18:59:23.751Z,98660.66
2022-10-17T19:01:50.023Z,98653.69
2022-10-17T19:04:16.379Z,98654.72
2022-10-17T19:06:42.606Z,98652.28
2022-10-17T19:09:08.841Z,98652.28
2022-10-17T19:11:35.133Z,98661.44
2022-10-17T19:14:01.343Z,98661.44
2022-10-17T19:16:28.728Z,98666.81
2022-10-17T19:18:55.316Z,98665.44
2022-10-17T19:21:22.202Z,98667.31
2022-10-17T19:23:48.813Z,98667.31
2022-10-17T19:26:15.093Z,98664.88
2022-10-17T19:28:41.321Z,98670.25
2022-10-17T19:31:07.650Z,98674.00
2022-10-17T19:33:33.944Z,98666.97
2022-10-17T19:36:00.155Z,98670.75
2022-10-17T19:38:27.605Z,98667.50
2022-10-17T19:40:54.003Z,98673.72
2022-10-17T19:43:20.341Z,98673.72
2022-10-17T19:45:46.653Z,98668.31
2022-10-17T19:48:12.868Z,98677.44
2022-10-17T19:50:41.313Z,98672.88
2022-10-17T19:53:07.856Z,98673.97
2022-10-17T19:55:34.231Z,98682.03
2022-10-17T19:58:00.437Z,98678.53
2022-10-17T20:00:26.641Z,98683.09
2022-10-17T20:02:52.906Z,98688.47
2022-10-17T20:05:19.782Z,98689.53
2022-10-17T20:07:48.050Z,98691.41
2022-10-17T20:10:14.395Z,98693.28
2022-10-17T20:12:40.991Z,98689.81
2022-10-17T20:15:08.789Z,98696.22
2022-10-17T20:17:36.354Z,98701.59
2022-10-17T20:20:06.262Z,98694.63
2022-10-17T20:22:35.075Z,98702.44
2022-10-17T20:25:01.291Z,98702.69
2022-10-17T20:27:27.905Z,98704.56
2022-10-17T20:29:54.207Z,98713.69
2022-10-17T20:32:20.377Z,98712.88
2022-10-17T20:34:47.041Z,98706.69
2022-10-17T20:37:13.328Z,98713.97
2022-10-17T20:39:39.560Z,98709.63
2022-10-17T20:42:06.121Z,98707.75
2022-10-17T20:44:32.461Z,98719.56
2022-10-17T20:47:02.345Z,98730.31
2022-10-17T20:49:28.977Z,98729.78
2022-10-17T20:51:55.265Z,98731.66
2022-10-17T20:54:21.710Z,98738.91
2022-10-17T20:56:48.012Z,98743.22
2022-10-17T20:59:14.364Z,98741.84
2022-10-17T21:01:40.610Z,98745.63
2022-10-17T21:04:33.425Z,98756.38
2022-10-17T21:06:53.211Z,98752.03
2022-10-17T21:09:19.562Z,98749.34
2022-10-17T21:11:46.070Z,98750.44
2022-10-17T21:14:12.375Z,98749.59
2022-10-17T21:16:38.613Z,98752.56
2022-10-17T21:19:05.059Z,98760.63
2022-10-17T21:21:32.128Z,98756.28
2022-10-17T21:23:58.550Z,98764.34
2022-10-17T21:26:24.853Z,98760.06
2022-10-17T21:28:52.582Z,98763.56
2022-10-17T21:31:22.588Z,98770.00
2022-10-17T21:33:48.841Z,98770.25
2022-10-17T21:36:18.248Z,98769.47
2022-10-17T21:38:45.041Z,98777.53
2022-10-17T21:41:11.311Z,98782.34
2022-10-17T21:43:38.226Z,98779.91
2022-10-17T21:46:04.628Z,98776.66
2022-10-17T21:48:30.862Z,98776.91
2022-10-17T21:50:57.601Z,98776.34
2022-10-17T21:53:24.133Z,98781.97
2022-10-17T21:55:50.861Z,98784.88
2022-10-17T21:58:18.093Z,98783.53
2022-10-17T22:00:45.896Z,98779.19
2022-10-17T22:03:12.099Z,98784.03
2022-10-17T22:05:39.851Z,98785.09
2022-10-17T22:08:06.399Z,98792.56
2022-10-17T22:10:32.596Z,98783.94
2022-10-17T22:12:58.837Z,98788.78
2022-10-17T22:15:25.950Z,98782.84
2022-10-17T22:17:54.709Z,98786.59
2022-10-17T22:20:20.905Z,98799.47
2022-10-17T22:22:48.042Z,98799.69
2022-10-17T22:25:14.272Z,98789.22
2022-10-17T22:27:40.564Z,98792.97
2022-10-17T22:30:08.055Z,98787.03
2022-10-17T22:32:34.941Z,98791.00
2022-10-17T22:35:01.632Z,98772.00
2022-10-17T22:37:27.996Z,98806.59
2022-10-17T22:39:55.186Z,98811.41
2022-10-17T22:44:52.752Z,98811.66
2022-10-17T22:47:19.031Z,98808.38
2022-10-17T22:49:46.516Z,98807.53
2022-10-17T22:52:12.856Z,98796.22
2022-10-17T22:54:40.182Z,98802.69
2022-10-17T22:57:06.480Z,98798.34
2022-10-17T22:59:32.658Z,98797.78
2022-10-17T23:01:58.988Z,98798.84
2022-10-17T23:04:26.055Z,98802.59
2022-10-17T23:06:52.302Z,98809.59
2022-10-17T23:09:18.635Z,98810.66
2022-10-17T23:11:44.920Z,98795.34
2022-10-17T23:14:11.195Z,98803.41
2022-10-17T23:16:37.660Z,98798.84
2022-10-17T23:19:03.969Z,98800.72
2022-10-17T23:21:30.167Z,98804.22
2022-10-17T23:23:56.389Z,98796.41
2022-10-17T23:26:23.284Z,98810.88
2022-10-17T23:28:49.618Z,98821.63
2022-10-17T23:31:15.856Z,98817.09
2022-10-17T23:33:42.133Z,98819.78
2022-10-17T23:36:08.439Z,98820.84
2022-10-17T23:38:34.770Z,98824.31
2022-10-17T23:41:01.601Z,98821.88
2022-10-17T23:43:27.840Z,98816.50
2022-10-17T23:45:54.759Z,98815.72
2022-10-17T23:48:21.087Z,98817.59
2022-10-17T23:50:47.400Z,98825.66
2022-10-17T23:53:13.633Z,98816.75
2022-10-17T23:55:40.108Z,98827.50
2022-10-17T23:58:06.955Z,98826.72
